sensor_id;sensor_type;location;lat;lon;timestamp;P1;durP1;ratioP1;P2;durP2;ratioP2
51194;SDS011;37259;49.972;19.850;2023-08-08T00:00:45;3.9;;;1.3;;
51194;SDS011;37259;49.972;19.850;2023-08-08T00:01:45;3.9;;;1.3;;
51194;SDS011;37259;49.972;19.850;2023-08-08T00:02:45;3.9;;;1.3;;
51194;SDS011;37259;49.972;19.850;2023-08-08T00:03:45;3.9;;;1.3;;
51194;SDS011;37259;49.972;19.850;2023-08-08T00:04:45;3.9;;;1.3;;
51194;SDS011;37259;49.972;19.850;2023-08-08T00:05:45;3.9;;;1.3;;
51194;SDS011;37259;49.972;19.850;2023-08-08T00:06:45;3.9;;;1.3;;
51194;SDS011;37259;49.972;19.850;2023-08-08T00:07:45;3.9;;;1.3;;
51194;SDS011;37259;49.972;19.850;2023-08-08T00:08:45;3.9;;;1.3;;
51194;SDS011;37259;49.972;19.850;2023-08-08T00:09:45;3.9;;;1.3;;
51194;SDS011;37259;49.972;19.850;2023-08-08T00:10:45;3.9;;;1.3;;
51194;SDS011;37259;49.972;19.850;2023-08-08T00:11:45;2.7;;;1;;
51194;SDS011;37259;49.972;19.850;2023-08-08T00:12:45;2.7;;;1;;
51194;SDS011;37259;49.972;19.850;2023-08-08T00:13:45;2.7;;;1;;
51194;SDS011;37259;49.972;19.850;2023-08-08T00:14:45;2.7;;;1;;
51194;SDS011;37259;49.972;19.850;2023-08-08T00:15:45;2.7;;;1;;
51194;SDS011;37259;49.972;19.850;2023-08-08T00:16:45;2.7;;;1;;
51194;SDS011;37259;49.972;19.850;2023-08-08T00:17:46;2.7;;;1;;
51194;SDS011;37259;49.972;19.850;2023-08-08T00:18:45;2.7;;;1;;
51194;SDS011;37259;49.972;19.850;2023-08-08T00:19:45;2.7;;;1;;
51194;SDS011;37259;49.972;19.850;2023-08-08T00:20:45;2.7;;;1;;
51194;SDS011;37259;49.972;19.850;2023-08-08T00:21:45;2.7;;;1;;
51194;SDS011;37259;49.972;19.850;2023-08-08T00:22:45;2.7;;;1;;
51194;SDS011;37259;49.972;19.850;2023-08-08T00:23:45;2.7;;;1;;
51194;SDS011;37259;49.972;19.850;2023-08-08T00:24:45;2.7;;;1;;
51194;SDS011;37259;49.972;19.850;2023-08-08T00:25:45;2.7;;;1;;
51194;SDS011;37259;49.972;19.850;2023-08-08T00:26:45;2.7;;;1;;
51194;SDS011;37259;49.972;19.850;2023-08-08T00:27:45;2.7;;;1;;
51194;SDS011;37259;49.972;19.850;2023-08-08T00:28:45;2.7;;;1;;
51194;SDS011;37259;49.972;19.850;2023-08-08T00:29:45;2.7;;;1;;
51194;SDS011;37259;49.972;19.850;2023-08-08T00:30:45;2.7;;;1;;
51194;SDS011;37259;49.972;19.850;2023-08-08T00:31:45;2.7;;;1;;
51194;SDS011;37259;49.972;19.850;2023-08-08T00:32:45;2.7;;;1;;
51194;SDS011;37259;49.972;19.850;2023-08-08T00:33:45;2.7;;;1;;
51194;SDS011;37259;49.972;19.850;2023-08-08T00:34:45;2.7;;;1;;
51194;SDS011;37259;49.972;19.850;2023-08-08T00:35:45;2.7;;;1;;
51194;SDS011;37259;49.972;19.850;2023-08-08T00:36:45;2.7;;;1;;
51194;SDS011;37259;49.972;19.850;2023-08-08T00:37:45;2.7;;;1;;
51194;SDS011;37259;49.972;19.850;2023-08-08T00:38:45;2.7;;;1;;
51194;SDS011;37259;49.972;19.850;2023-08-08T00:39:45;2.7;;;1;;
51194;SDS011;37259;49.972;19.850;2023-08-08T00:40:45;2.7;;;1;;
51194;SDS011;37259;49.972;19.850;2023-08-08T00:41:45;2.5;;;0.9;;
51194;SDS011;37259;49.972;19.850;2023-08-08T00:42:45;2.5;;;0.9;;
51194;SDS011;37259;49.972;19.850;2023-08-08T00:43:45;2.5;;;0.9;;
51194;SDS011;37259;49.972;19.850;2023-08-08T00:44:45;2.5;;;0.9;;
51194;SDS011;37259;49.972;19.850;2023-08-08T00:45:45;2.5;;;0.9;;
51194;SDS011;37259;49.972;19.850;2023-08-08T00:46:45;2.5;;;0.9;;
51194;SDS011;37259;49.972;19.850;2023-08-08T00:47:45;2.5;;;0.9;;
51194;SDS011;37259;49.972;19.850;2023-08-08T00:48:45;2.5;;;0.9;;
51194;SDS011;37259;49.972;19.850;2023-08-08T00:49:45;2.5;;;0.9;;
51194;SDS011;37259;49.972;19.850;2023-08-08T00:50:45;2.5;;;0.9;;
51194;SDS011;37259;49.972;19.850;2023-08-08T00:51:45;2.5;;;0.9;;
51194;SDS011;37259;49.972;19.850;2023-08-08T00:52:45;2.5;;;0.9;;
51194;SDS011;37259;49.972;19.850;2023-08-08T00:53:45;2.5;;;0.9;;
51194;SDS011;37259;49.972;19.850;2023-08-08T00:54:45;2.5;;;0.9;;
51194;SDS011;37259;49.972;19.850;2023-08-08T00:55:45;2.5;;;0.9;;
51194;SDS011;37259;49.972;19.850;2023-08-08T00:56:45;2.5;;;0.9;;
51194;SDS011;37259;49.972;19.850;2023-08-08T00:57:45;2.5;;;0.9;;
51194;SDS011;37259;49.972;19.850;2023-08-08T00:58:45;2.5;;;0.9;;
51194;SDS011;37259;49.972;19.850;2023-08-08T00:59:45;2.5;;;0.9;;
51194;SDS011;37259;49.972;19.850;2023-08-08T01:00:45;2.5;;;0.9;;
51194;SDS011;37259;49.972;19.850;2023-08-08T01:01:45;2.5;;;0.9;;
51194;SDS011;37259;49.972;19.850;2023-08-08T01:02:45;2.5;;;0.9;;
51194;SDS011;37259;49.972;19.850;2023-08-08T01:03:45;2.5;;;0.9;;
51194;SDS011;37259;49.972;19.850;2023-08-08T01:04:45;2.5;;;0.9;;
51194;SDS011;37259;49.972;19.850;2023-08-08T01:05:47;2.5;;;0.9;;
51194;SDS011;37259;49.972;19.850;2023-08-08T01:06:47;2.5;;;0.9;;
51194;SDS011;37259;49.972;19.850;2023-08-08T01:07:47;2.5;;;0.9;;
51194;SDS011;37259;49.972;19.850;2023-08-08T01:08:47;2.5;;;0.9;;
51194;SDS011;37259;49.972;19.850;2023-08-08T01:09:47;2.5;;;0.9;;
51194;SDS011;37259;49.972;19.850;2023-08-08T01:10:45;2.5;;;0.9;;
51194;SDS011;37259;49.972;19.850;2023-08-08T01:11:45;3.3;;;1.2;;
51194;SDS011;37259;49.972;19.850;2023-08-08T01:12:46;3.3;;;1.2;;
51194;SDS011;37259;49.972;19.850;2023-08-08T01:13:45;3.3;;;1.2;;
51194;SDS011;37259;49.972;19.850;2023-08-08T01:14:45;3.3;;;1.2;;
51194;SDS011;37259;49.972;19.850;2023-08-08T01:15:46;3.3;;;1.2;;
51194;SDS011;37259;49.972;19.850;2023-08-08T01:16:45;3.3;;;1.2;;
51194;SDS011;37259;49.972;19.850;2023-08-08T01:17:46;3.3;;;1.2;;
51194;SDS011;37259;49.972;19.850;2023-08-08T01:18:46;3.3;;;1.2;;
51194;SDS011;37259;49.972;19.850;2023-08-08T01:19:45;3.3;;;1.2;;
51194;SDS011;37259;49.972;19.850;2023-08-08T01:20:45;3.3;;;1.2;;
51194;SDS011;37259;49.972;19.850;2023-08-08T01:21:45;3.3;;;1.2;;
51194;SDS011;37259;49.972;19.850;2023-08-08T01:22:48;3.3;;;1.2;;
51194;SDS011;37259;49.972;19.850;2023-08-08T01:23:46;3.3;;;1.2;;
51194;SDS011;37259;49.972;19.850;2023-08-08T01:24:45;3.3;;;1.2;;
51194;SDS011;37259;49.972;19.850;2023-08-08T01:25:46;3.3;;;1.2;;
51194;SDS011;37259;49.972;19.850;2023-08-08T01:26:45;3.3;;;1.2;;
51194;SDS011;37259;49.972;19.850;2023-08-08T01:27:45;3.3;;;1.2;;
51194;SDS011;37259;49.972;19.850;2023-08-08T01:28:45;3.3;;;1.2;;
51194;SDS011;37259;49.972;19.850;2023-08-08T01:29:45;3.3;;;1.2;;
51194;SDS011;37259;49.972;19.850;2023-08-08T01:30:45;3.3;;;1.2;;
51194;SDS011;37259;49.972;19.850;2023-08-08T01:31:45;3.3;;;1.2;;
51194;SDS011;37259;49.972;19.850;2023-08-08T01:32:45;3.3;;;1.2;;
51194;SDS011;37259;49.972;19.850;2023-08-08T01:33:45;3.3;;;1.2;;
51194;SDS011;37259;49.972;19.850;2023-08-08T01:34:45;3.3;;;1.2;;
51194;SDS011;37259;49.972;19.850;2023-08-08T01:35:46;3.3;;;1.2;;
51194;SDS011;37259;49.972;19.850;2023-08-08T01:36:46;3.3;;;1.2;;
51194;SDS011;37259;49.972;19.850;2023-08-08T01:37:49;3.3;;;1.2;;
51194;SDS011;37259;49.972;19.850;2023-08-08T01:38:46;3.3;;;1.2;;
51194;SDS011;37259;49.972;19.850;2023-08-08T01:39:46;3.3;;;1.2;;
51194;SDS011;37259;49.972;19.850;2023-08-08T01:40:45;3.3;;;1.2;;
51194;SDS011;37259;49.972;19.850;2023-08-08T01:41:45;3.7;;;1.2;;
51194;SDS011;37259;49.972;19.850;2023-08-08T01:42:46;3.7;;;1.2;;
51194;SDS011;37259;49.972;19.850;2023-08-08T01:43:45;3.7;;;1.2;;
51194;SDS011;37259;49.972;19.850;2023-08-08T01:44:45;3.7;;;1.2;;
51194;SDS011;37259;49.972;19.850;2023-08-08T01:45:45;3.7;;;1.2;;
51194;SDS011;37259;49.972;19.850;2023-08-08T01:46:46;3.7;;;1.2;;
51194;SDS011;37259;49.972;19.850;2023-08-08T01:47:49;3.7;;;1.2;;
51194;SDS011;37259;49.972;19.850;2023-08-08T01:48:45;3.7;;;1.2;;
51194;SDS011;37259;49.972;19.850;2023-08-08T01:49:45;3.7;;;1.2;;
51194;SDS011;37259;49.972;19.850;2023-08-08T01:50:45;3.7;;;1.2;;
51194;SDS011;37259;49.972;19.850;2023-08-08T01:51:45;3.7;;;1.2;;
51194;SDS011;37259;49.972;19.850;2023-08-08T01:52:45;3.7;;;1.2;;
51194;SDS011;37259;49.972;19.850;2023-08-08T01:53:45;3.7;;;1.2;;
51194;SDS011;37259;49.972;19.850;2023-08-08T01:54:45;3.7;;;1.2;;
51194;SDS011;37259;49.972;19.850;2023-08-08T01:55:45;3.7;;;1.2;;
51194;SDS011;37259;49.972;19.850;2023-08-08T01:56:45;3.7;;;1.2;;
51194;SDS011;37259;49.972;19.850;2023-08-08T01:57:45;3.7;;;1.2;;
51194;SDS011;37259;49.972;19.850;2023-08-08T01:58:45;3.7;;;1.2;;
51194;SDS011;37259;49.972;19.850;2023-08-08T01:59:45;3.7;;;1.2;;
51194;SDS011;37259;49.972;19.850;2023-08-08T02:00:45;3.7;;;1.2;;
51194;SDS011;37259;49.972;19.850;2023-08-08T02:01:45;3.7;;;1.2;;
51194;SDS011;37259;49.972;19.850;2023-08-08T02:02:45;3.7;;;1.2;;
51194;SDS011;37259;49.972;19.850;2023-08-08T02:03:45;3.7;;;1.2;;
51194;SDS011;37259;49.972;19.850;2023-08-08T02:04:45;3.7;;;1.2;;
51194;SDS011;37259;49.972;19.850;2023-08-08T02:05:46;3.7;;;1.2;;
51194;SDS011;37259;49.972;19.850;2023-08-08T02:06:45;3.7;;;1.2;;
51194;SDS011;37259;49.972;19.850;2023-08-08T02:07:45;3.7;;;1.2;;
51194;SDS011;37259;49.972;19.850;2023-08-08T02:08:45;3.7;;;1.2;;
51194;SDS011;37259;49.972;19.850;2023-08-08T02:09:45;3.7;;;1.2;;
51194;SDS011;37259;49.972;19.850;2023-08-08T02:10:45;3.7;;;1.2;;
51194;SDS011;37259;49.972;19.850;2023-08-08T02:11:45;2.1;;;0.8;;
51194;SDS011;37259;49.972;19.850;2023-08-08T02:12:46;2.1;;;0.8;;
51194;SDS011;37259;49.972;19.850;2023-08-08T02:13:45;2.1;;;0.8;;
51194;SDS011;37259;49.972;19.850;2023-08-08T02:14:45;2.1;;;0.8;;
51194;SDS011;37259;49.972;19.850;2023-08-08T02:15:46;2.1;;;0.8;;
51194;SDS011;37259;49.972;19.850;2023-08-08T02:16:45;2.1;;;0.8;;
51194;SDS011;37259;49.972;19.850;2023-08-08T02:17:45;2.1;;;0.8;;
51194;SDS011;37259;49.972;19.850;2023-08-08T02:18:46;2.1;;;0.8;;
51194;SDS011;37259;49.972;19.850;2023-08-08T02:19:45;2.1;;;0.8;;
51194;SDS011;37259;49.972;19.850;2023-08-08T02:20:45;2.1;;;0.8;;
51194;SDS011;37259;49.972;19.850;2023-08-08T02:21:45;2.1;;;0.8;;
51194;SDS011;37259;49.972;19.850;2023-08-08T02:22:45;2.1;;;0.8;;
51194;SDS011;37259;49.972;19.850;2023-08-08T02:23:45;2.1;;;0.8;;
51194;SDS011;37259;49.972;19.850;2023-08-08T02:24:45;2.1;;;0.8;;
51194;SDS011;37259;49.972;19.850;2023-08-08T02:25:45;2.1;;;0.8;;
51194;SDS011;37259;49.972;19.850;2023-08-08T02:26:46;2.1;;;0.8;;
51194;SDS011;37259;49.972;19.850;2023-08-08T02:27:45;2.1;;;0.8;;
51194;SDS011;37259;49.972;19.850;2023-08-08T02:28:45;2.1;;;0.8;;
51194;SDS011;37259;49.972;19.850;2023-08-08T02:29:45;2.1;;;0.8;;
51194;SDS011;37259;49.972;19.850;2023-08-08T02:30:45;2.1;;;0.8;;
51194;SDS011;37259;49.972;19.850;2023-08-08T02:31:45;2.1;;;0.8;;
51194;SDS011;37259;49.972;19.850;2023-08-08T02:32:45;2.1;;;0.8;;
51194;SDS011;37259;49.972;19.850;2023-08-08T02:33:47;2.1;;;0.8;;
51194;SDS011;37259;49.972;19.850;2023-08-08T02:34:45;2.1;;;0.8;;
51194;SDS011;37259;49.972;19.850;2023-08-08T02:35:45;2.1;;;0.8;;
51194;SDS011;37259;49.972;19.850;2023-08-08T02:36:45;2.1;;;0.8;;
51194;SDS011;37259;49.972;19.850;2023-08-08T02:37:45;2.1;;;0.8;;
51194;SDS011;37259;49.972;19.850;2023-08-08T02:38:45;2.1;;;0.8;;
51194;SDS011;37259;49.972;19.850;2023-08-08T02:39:45;2.1;;;0.8;;
51194;SDS011;37259;49.972;19.850;2023-08-08T02:40:45;2.1;;;0.8;;
51194;SDS011;37259;49.972;19.850;2023-08-08T02:41:45;2;;;0.9;;
51194;SDS011;37259;49.972;19.850;2023-08-08T02:42:45;2;;;0.9;;
51194;SDS011;37259;49.972;19.850;2023-08-08T02:43:45;2;;;0.9;;
51194;SDS011;37259;49.972;19.850;2023-08-08T02:44:45;2;;;0.9;;
51194;SDS011;37259;49.972;19.850;2023-08-08T02:45:45;2;;;0.9;;
51194;SDS011;37259;49.972;19.850;2023-08-08T02:46:45;2;;;0.9;;
51194;SDS011;37259;49.972;19.850;2023-08-08T02:47:45;2;;;0.9;;
51194;SDS011;37259;49.972;19.850;2023-08-08T02:48:45;2;;;0.9;;
51194;SDS011;37259;49.972;19.850;2023-08-08T02:49:45;2;;;0.9;;
51194;SDS011;37259;49.972;19.850;2023-08-08T02:50:45;2;;;0.9;;
51194;SDS011;37259;49.972;19.850;2023-08-08T02:51:45;2;;;0.9;;
51194;SDS011;37259;49.972;19.850;2023-08-08T02:52:45;2;;;0.9;;
51194;SDS011;37259;49.972;19.850;2023-08-08T02:53:45;2;;;0.9;;
51194;SDS011;37259;49.972;19.850;2023-08-08T02:54:45;2;;;0.9;;
51194;SDS011;37259;49.972;19.850;2023-08-08T02:55:46;2;;;0.9;;
51194;SDS011;37259;49.972;19.850;2023-08-08T02:56:45;2;;;0.9;;
51194;SDS011;37259;49.972;19.850;2023-08-08T02:57:45;2;;;0.9;;
51194;SDS011;37259;49.972;19.850;2023-08-08T02:58:45;2;;;0.9;;
51194;SDS011;37259;49.972;19.850;2023-08-08T02:59:45;2;;;0.9;;
51194;SDS011;37259;49.972;19.850;2023-08-08T03:00:45;2;;;0.9;;
51194;SDS011;37259;49.972;19.850;2023-08-08T03:01:45;2;;;0.9;;
51194;SDS011;37259;49.972;19.850;2023-08-08T03:02:45;2;;;0.9;;
51194;SDS011;37259;49.972;19.850;2023-08-08T03:03:45;2;;;0.9;;
51194;SDS011;37259;49.972;19.850;2023-08-08T03:04:45;2;;;0.9;;
51194;SDS011;37259;49.972;19.850;2023-08-08T03:05:45;2;;;0.9;;
51194;SDS011;37259;49.972;19.850;2023-08-08T03:06:45;2;;;0.9;;
51194;SDS011;37259;49.972;19.850;2023-08-08T03:07:45;2;;;0.9;;
51194;SDS011;37259;49.972;19.850;2023-08-08T03:08:45;2;;;0.9;;
51194;SDS011;37259;49.972;19.850;2023-08-08T03:09:45;2;;;0.9;;
51194;SDS011;37259;49.972;19.850;2023-08-08T03:10:45;2;;;0.9;;
51194;SDS011;37259;49.972;19.850;2023-08-08T03:11:45;3.5;;;1;;
51194;SDS011;37259;49.972;19.850;2023-08-08T03:12:45;3.5;;;1;;
51194;SDS011;37259;49.972;19.850;2023-08-08T03:13:45;3.5;;;1;;
51194;SDS011;37259;49.972;19.850;2023-08-08T03:14:46;3.5;;;1;;
51194;SDS011;37259;49.972;19.850;2023-08-08T03:15:45;3.5;;;1;;
51194;SDS011;37259;49.972;19.850;2023-08-08T03:16:45;3.5;;;1;;
51194;SDS011;37259;49.972;19.850;2023-08-08T03:17:45;3.5;;;1;;
51194;SDS011;37259;49.972;19.850;2023-08-08T03:18:45;3.5;;;1;;
51194;SDS011;37259;49.972;19.850;2023-08-08T03:19:45;3.5;;;1;;
51194;SDS011;37259;49.972;19.850;2023-08-08T03:20:45;3.5;;;1;;
51194;SDS011;37259;49.972;19.850;2023-08-08T03:21:45;3.5;;;1;;
51194;SDS011;37259;49.972;19.850;2023-08-08T03:22:45;3.5;;;1;;
51194;SDS011;37259;49.972;19.850;2023-08-08T03:23:46;3.5;;;1;;
51194;SDS011;37259;49.972;19.850;2023-08-08T03:24:45;3.5;;;1;;
51194;SDS011;37259;49.972;19.850;2023-08-08T03:25:45;3.5;;;1;;
51194;SDS011;37259;49.972;19.850;2023-08-08T03:26:45;3.5;;;1;;
51194;SDS011;37259;49.972;19.850;2023-08-08T03:27:45;3.5;;;1;;
51194;SDS011;37259;49.972;19.850;2023-08-08T03:28:45;3.5;;;1;;
51194;SDS011;37259;49.972;19.850;2023-08-08T03:29:45;3.5;;;1;;
51194;SDS011;37259;49.972;19.850;2023-08-08T03:30:45;3.5;;;1;;
51194;SDS011;37259;49.972;19.850;2023-08-08T03:31:45;3.5;;;1;;
51194;SDS011;37259;49.972;19.850;2023-08-08T03:32:46;3.5;;;1;;
51194;SDS011;37259;49.972;19.850;2023-08-08T03:33:46;3.5;;;1;;
51194;SDS011;37259;49.972;19.850;2023-08-08T03:34:45;3.5;;;1;;
51194;SDS011;37259;49.972;19.850;2023-08-08T03:35:45;3.5;;;1;;
51194;SDS011;37259;49.972;19.850;2023-08-08T03:36:45;3.5;;;1;;
51194;SDS011;37259;49.972;19.850;2023-08-08T03:37:45;3.5;;;1;;
51194;SDS011;37259;49.972;19.850;2023-08-08T03:38:45;3.5;;;1;;
51194;SDS011;37259;49.972;19.850;2023-08-08T03:39:45;3.5;;;1;;
51194;SDS011;37259;49.972;19.850;2023-08-08T03:40:45;3.5;;;1;;
51194;SDS011;37259;49.972;19.850;2023-08-08T03:41:45;3.8;;;1.7;;
51194;SDS011;37259;49.972;19.850;2023-08-08T03:42:45;3.8;;;1.7;;
51194;SDS011;37259;49.972;19.850;2023-08-08T03:43:45;3.8;;;1.7;;
51194;SDS011;37259;49.972;19.850;2023-08-08T03:44:45;3.8;;;1.7;;
51194;SDS011;37259;49.972;19.850;2023-08-08T03:45:45;3.8;;;1.7;;
51194;SDS011;37259;49.972;19.850;2023-08-08T03:46:45;3.8;;;1.7;;
51194;SDS011;37259;49.972;19.850;2023-08-08T03:47:45;3.8;;;1.7;;
51194;SDS011;37259;49.972;19.850;2023-08-08T03:48:45;3.8;;;1.7;;
51194;SDS011;37259;49.972;19.850;2023-08-08T03:49:45;3.8;;;1.7;;
51194;SDS011;37259;49.972;19.850;2023-08-08T03:50:45;3.8;;;1.7;;
51194;SDS011;37259;49.972;19.850;2023-08-08T03:51:45;3.8;;;1.7;;
51194;SDS011;37259;49.972;19.850;2023-08-08T03:52:45;3.8;;;1.7;;
51194;SDS011;37259;49.972;19.850;2023-08-08T03:53:46;3.8;;;1.7;;
51194;SDS011;37259;49.972;19.850;2023-08-08T03:54:45;3.8;;;1.7;;
51194;SDS011;37259;49.972;19.850;2023-08-08T03:55:45;3.8;;;1.7;;
51194;SDS011;37259;49.972;19.850;2023-08-08T03:56:45;3.8;;;1.7;;
51194;SDS011;37259;49.972;19.850;2023-08-08T03:57:45;3.8;;;1.7;;
51194;SDS011;37259;49.972;19.850;2023-08-08T03:58:45;3.8;;;1.7;;
51194;SDS011;37259;49.972;19.850;2023-08-08T03:59:45;3.8;;;1.7;;
51194;SDS011;37259;49.972;19.850;2023-08-08T04:00:45;3.8;;;1.7;;
51194;SDS011;37259;49.972;19.850;2023-08-08T04:01:45;3.8;;;1.7;;
51194;SDS011;37259;49.972;19.850;2023-08-08T04:02:45;3.8;;;1.7;;
51194;SDS011;37259;49.972;19.850;2023-08-08T04:03:45;3.8;;;1.7;;
51194;SDS011;37259;49.972;19.850;2023-08-08T04:04:45;3.8;;;1.7;;
51194;SDS011;37259;49.972;19.850;2023-08-08T04:05:46;3.8;;;1.7;;
51194;SDS011;37259;49.972;19.850;2023-08-08T04:06:45;3.8;;;1.7;;
51194;SDS011;37259;49.972;19.850;2023-08-08T04:07:45;3.8;;;1.7;;
51194;SDS011;37259;49.972;19.850;2023-08-08T04:08:45;3.8;;;1.7;;
51194;SDS011;37259;49.972;19.850;2023-08-08T04:09:45;3.8;;;1.7;;
51194;SDS011;37259;49.972;19.850;2023-08-08T04:10:46;3.8;;;1.7;;
51194;SDS011;37259;49.972;19.850;2023-08-08T04:11:45;5.3;;;1.7;;
51194;SDS011;37259;49.972;19.850;2023-08-08T04:12:45;5.3;;;1.7;;
51194;SDS011;37259;49.972;19.850;2023-08-08T04:13:45;5.3;;;1.7;;
51194;SDS011;37259;49.972;19.850;2023-08-08T04:14:45;5.3;;;1.7;;
51194;SDS011;37259;49.972;19.850;2023-08-08T04:15:45;5.3;;;1.7;;
51194;SDS011;37259;49.972;19.850;2023-08-08T04:16:45;5.3;;;1.7;;
51194;SDS011;37259;49.972;19.850;2023-08-08T04:17:45;5.3;;;1.7;;
51194;SDS011;37259;49.972;19.850;2023-08-08T04:18:45;5.3;;;1.7;;
51194;SDS011;37259;49.972;19.850;2023-08-08T04:19:45;5.3;;;1.7;;
51194;SDS011;37259;49.972;19.850;2023-08-08T04:20:46;5.3;;;1.7;;
51194;SDS011;37259;49.972;19.850;2023-08-08T04:21:45;5.3;;;1.7;;
51194;SDS011;37259;49.972;19.850;2023-08-08T04:22:45;5.3;;;1.7;;
51194;SDS011;37259;49.972;19.850;2023-08-08T04:23:45;5.3;;;1.7;;
51194;SDS011;37259;49.972;19.850;2023-08-08T04:24:45;5.3;;;1.7;;
51194;SDS011;37259;49.972;19.850;2023-08-08T04:25:45;5.3;;;1.7;;
51194;SDS011;37259;49.972;19.850;2023-08-08T04:26:45;5.3;;;1.7;;
51194;SDS011;37259;49.972;19.850;2023-08-08T04:27:45;5.3;;;1.7;;
51194;SDS011;37259;49.972;19.850;2023-08-08T04:28:45;5.3;;;1.7;;
51194;SDS011;37259;49.972;19.850;2023-08-08T04:29:45;5.3;;;1.7;;
51194;SDS011;37259;49.972;19.850;2023-08-08T04:30:45;5.3;;;1.7;;
51194;SDS011;37259;49.972;19.850;2023-08-08T04:31:45;5.3;;;1.7;;
51194;SDS011;37259;49.972;19.850;2023-08-08T04:32:45;5.3;;;1.7;;
51194;SDS011;37259;49.972;19.850;2023-08-08T04:33:45;5.3;;;1.7;;
51194;SDS011;37259;49.972;19.850;2023-08-08T04:34:45;5.3;;;1.7;;
51194;SDS011;37259;49.972;19.850;2023-08-08T04:35:45;5.3;;;1.7;;
51194;SDS011;37259;49.972;19.850;2023-08-08T04:36:45;5.3;;;1.7;;
51194;SDS011;37259;49.972;19.850;2023-08-08T04:37:45;5.3;;;1.7;;
51194;SDS011;37259;49.972;19.850;2023-08-08T04:38:45;5.3;;;1.7;;
51194;SDS011;37259;49.972;19.850;2023-08-08T04:39:45;5.3;;;1.7;;
51194;SDS011;37259;49.972;19.850;2023-08-08T04:40:45;5.3;;;1.7;;
51194;SDS011;37259;49.972;19.850;2023-08-08T04:41:45;2.5;;;1.1;;
51194;SDS011;37259;49.972;19.850;2023-08-08T04:42:45;2.5;;;1.1;;
51194;SDS011;37259;49.972;19.850;2023-08-08T04:43:45;2.5;;;1.1;;
51194;SDS011;37259;49.972;19.850;2023-08-08T04:44:45;2.5;;;1.1;;
51194;SDS011;37259;49.972;19.850;2023-08-08T04:45:45;2.5;;;1.1;;
51194;SDS011;37259;49.972;19.850;2023-08-08T04:46:45;2.5;;;1.1;;
51194;SDS011;37259;49.972;19.850;2023-08-08T04:47:45;2.5;;;1.1;;
51194;SDS011;37259;49.972;19.850;2023-08-08T04:48:45;2.5;;;1.1;;
51194;SDS011;37259;49.972;19.850;2023-08-08T04:49:45;2.5;;;1.1;;
51194;SDS011;37259;49.972;19.850;2023-08-08T04:50:46;2.5;;;1.1;;
51194;SDS011;37259;49.972;19.850;2023-08-08T04:51:45;2.5;;;1.1;;
51194;SDS011;37259;49.972;19.850;2023-08-08T04:52:45;2.5;;;1.1;;
51194;SDS011;37259;49.972;19.850;2023-08-08T04:53:45;2.5;;;1.1;;
51194;SDS011;37259;49.972;19.850;2023-08-08T04:54:45;2.5;;;1.1;;
51194;SDS011;37259;49.972;19.850;2023-08-08T04:55:46;2.5;;;1.1;;
51194;SDS011;37259;49.972;19.850;2023-08-08T04:56:45;2.5;;;1.1;;
51194;SDS011;37259;49.972;19.850;2023-08-08T04:57:45;2.5;;;1.1;;
51194;SDS011;37259;49.972;19.850;2023-08-08T04:58:45;2.5;;;1.1;;
51194;SDS011;37259;49.972;19.850;2023-08-08T04:59:46;2.5;;;1.1;;
51194;SDS011;37259;49.972;19.850;2023-08-08T05:00:45;2.5;;;1.1;;
51194;SDS011;37259;49.972;19.850;2023-08-08T05:01:45;2.5;;;1.1;;
51194;SDS011;37259;49.972;19.850;2023-08-08T05:02:45;2.5;;;1.1;;
51194;SDS011;37259;49.972;19.850;2023-08-08T05:03:45;2.5;;;1.1;;
51194;SDS011;37259;49.972;19.850;2023-08-08T05:04:45;2.5;;;1.1;;
51194;SDS011;37259;49.972;19.850;2023-08-08T05:05:45;2.5;;;1.1;;
51194;SDS011;37259;49.972;19.850;2023-08-08T05:06:46;2.5;;;1.1;;
51194;SDS011;37259;49.972;19.850;2023-08-08T05:07:45;2.5;;;1.1;;
51194;SDS011;37259;49.972;19.850;2023-08-08T05:08:45;2.5;;;1.1;;
51194;SDS011;37259;49.972;19.850;2023-08-08T05:09:45;2.5;;;1.1;;
51194;SDS011;37259;49.972;19.850;2023-08-08T05:10:45;2.5;;;1.1;;
51194;SDS011;37259;49.972;19.850;2023-08-08T05:11:46;2.6;;;1.3;;
51194;SDS011;37259;49.972;19.850;2023-08-08T05:12:45;2.6;;;1.3;;
51194;SDS011;37259;49.972;19.850;2023-08-08T05:13:45;2.6;;;1.3;;
51194;SDS011;37259;49.972;19.850;2023-08-08T05:14:46;2.6;;;1.3;;
51194;SDS011;37259;49.972;19.850;2023-08-08T05:15:45;2.6;;;1.3;;
51194;SDS011;37259;49.972;19.850;2023-08-08T05:16:46;2.6;;;1.3;;
51194;SDS011;37259;49.972;19.850;2023-08-08T05:17:45;2.6;;;1.3;;
51194;SDS011;37259;49.972;19.850;2023-08-08T05:18:45;2.6;;;1.3;;
51194;SDS011;37259;49.972;19.850;2023-08-08T05:19:45;2.6;;;1.3;;
51194;SDS011;37259;49.972;19.850;2023-08-08T05:20:45;2.6;;;1.3;;
51194;SDS011;37259;49.972;19.850;2023-08-08T05:21:45;2.6;;;1.3;;
51194;SDS011;37259;49.972;19.850;2023-08-08T05:22:45;2.6;;;1.3;;
51194;SDS011;37259;49.972;19.850;2023-08-08T05:23:45;2.6;;;1.3;;
51194;SDS011;37259;49.972;19.850;2023-08-08T05:24:46;2.6;;;1.3;;
51194;SDS011;37259;49.972;19.850;2023-08-08T05:25:45;2.6;;;1.3;;
51194;SDS011;37259;49.972;19.850;2023-08-08T05:26:45;2.6;;;1.3;;
51194;SDS011;37259;49.972;19.850;2023-08-08T05:27:45;2.6;;;1.3;;
51194;SDS011;37259;49.972;19.850;2023-08-08T05:28:45;2.6;;;1.3;;
51194;SDS011;37259;49.972;19.850;2023-08-08T05:29:45;2.6;;;1.3;;
51194;SDS011;37259;49.972;19.850;2023-08-08T05:30:45;2.6;;;1.3;;
51194;SDS011;37259;49.972;19.850;2023-08-08T05:31:45;2.6;;;1.3;;
51194;SDS011;37259;49.972;19.850;2023-08-08T05:32:45;2.6;;;1.3;;
51194;SDS011;37259;49.972;19.850;2023-08-08T05:33:47;2.6;;;1.3;;
51194;SDS011;37259;49.972;19.850;2023-08-08T05:34:46;2.6;;;1.3;;
51194;SDS011;37259;49.972;19.850;2023-08-08T05:35:45;2.6;;;1.3;;
51194;SDS011;37259;49.972;19.850;2023-08-08T05:36:45;2.6;;;1.3;;
51194;SDS011;37259;49.972;19.850;2023-08-08T05:37:45;2.6;;;1.3;;
51194;SDS011;37259;49.972;19.850;2023-08-08T05:38:46;2.6;;;1.3;;
51194;SDS011;37259;49.972;19.850;2023-08-08T05:39:45;2.6;;;1.3;;
51194;SDS011;37259;49.972;19.850;2023-08-08T05:40:46;2.6;;;1.3;;
51194;SDS011;37259;49.972;19.850;2023-08-08T05:41:45;4.1;;;1.8;;
51194;SDS011;37259;49.972;19.850;2023-08-08T05:42:46;4.1;;;1.8;;
51194;SDS011;37259;49.972;19.850;2023-08-08T05:43:45;4.1;;;1.8;;
51194;SDS011;37259;49.972;19.850;2023-08-08T05:44:45;4.1;;;1.8;;
51194;SDS011;37259;49.972;19.850;2023-08-08T05:45:45;4.1;;;1.8;;
51194;SDS011;37259;49.972;19.850;2023-08-08T05:46:46;4.1;;;1.8;;
51194;SDS011;37259;49.972;19.850;2023-08-08T05:47:45;4.1;;;1.8;;
51194;SDS011;37259;49.972;19.850;2023-08-08T05:48:45;4.1;;;1.8;;
51194;SDS011;37259;49.972;19.850;2023-08-08T05:49:45;4.1;;;1.8;;
51194;SDS011;37259;49.972;19.850;2023-08-08T05:50:46;4.1;;;1.8;;
51194;SDS011;37259;49.972;19.850;2023-08-08T05:51:45;4.1;;;1.8;;
51194;SDS011;37259;49.972;19.850;2023-08-08T05:52:46;4.1;;;1.8;;
51194;SDS011;37259;49.972;19.850;2023-08-08T05:53:46;4.1;;;1.8;;
51194;SDS011;37259;49.972;19.850;2023-08-08T05:54:45;4.1;;;1.8;;
51194;SDS011;37259;49.972;19.850;2023-08-08T05:55:45;4.1;;;1.8;;
51194;SDS011;37259;49.972;19.850;2023-08-08T05:56:46;4.1;;;1.8;;
51194;SDS011;37259;49.972;19.850;2023-08-08T05:57:45;4.1;;;1.8;;
51194;SDS011;37259;49.972;19.850;2023-08-08T05:58:46;4.1;;;1.8;;
51194;SDS011;37259;49.972;19.850;2023-08-08T05:59:46;4.1;;;1.8;;
51194;SDS011;37259;49.972;19.850;2023-08-08T06:00:46;4.1;;;1.8;;
51194;SDS011;37259;49.972;19.850;2023-08-08T06:01:45;4.1;;;1.8;;
51194;SDS011;37259;49.972;19.850;2023-08-08T06:02:45;4.1;;;1.8;;
51194;SDS011;37259;49.972;19.850;2023-08-08T06:03:45;4.1;;;1.8;;
51194;SDS011;37259;49.972;19.850;2023-08-08T06:04:45;4.1;;;1.8;;
51194;SDS011;37259;49.972;19.850;2023-08-08T06:05:45;4.1;;;1.8;;
51194;SDS011;37259;49.972;19.850;2023-08-08T06:06:45;4.1;;;1.8;;
51194;SDS011;37259;49.972;19.850;2023-08-08T06:07:45;4.1;;;1.8;;
51194;SDS011;37259;49.972;19.850;2023-08-08T06:08:45;4.1;;;1.8;;
51194;SDS011;37259;49.972;19.850;2023-08-08T06:09:45;4.1;;;1.8;;